Time;durP1;ratioP1;P1;durP2;ratioP2;P2;SDS_P1;SDS_P2;PMS_P1;PMS_P2;Temp;Humidity;BMP_temperature;BMP_pressure;BME280_temperature;BME280_humidity;BME280_pressure;Samples;Min_cycle;Max_cycle;Signal;HPM_P1;HPM_P2
2022/03/17 00:00:01;;;;;;;40.23;14.37;;;;;;;;;;10595882;27;20039;-72
2022/03/17 00:05:04;;;;;;;;;;;;;;;;;;10613925;27;20058;-72
2022/03/17 00:10:10;;;;;;;32.77;11.50;;;;;;;;;;10598947;27;19919;-70
2022/03/17 00:15:14;;;;;;;31.60;11.33;;;;;;;;;;10602152;27;20070;-72
2022/03/17 00:20:17;;;;;;;39.80;14.03;;;;;;;;;;10595272;27;20069;-72
2022/03/17 00:25:22;;;;;;;30.73;11.50;;;;;;;;;;10605518;27;20371;-73
2022/03/17 00:30:24;;;;;;;;;;;;;;;;;;10606941;27;20089;-72
2022/03/17 00:35:38;;;;;;;37.37;12.73;;;;;;;;;;10595776;27;19995;-72
2022/03/17 00:40:44;;;;;;;32.72;12.85;;;;;;;;;;10607774;27;20127;-72
2022/03/17 00:45:48;;;;;;;35.83;13.07;;;;;;;;;;10604617;27;20088;-72
2022/03/17 00:50:52;;;;;;;30.13;11.77;;;;;;;;;;10607939;27;20035;-73
2022/03/17 00:55:57;;;;;;;37.53;13.65;;;;;;;;;;10591155;27;20690;-72
2022/03/17 01:01:00;;;;;;;40.42;14.98;;;;;;;;;;10587308;27;20039;-72
2022/03/17 01:06:03;;;;;;;34.37;13.63;;;;;;;;;;10605057;27;20697;-71
2022/03/17 01:11:12;;;;;;;31.83;11.77;;;;;;;;;;10588661;27;20464;-72
2022/03/17 01:16:15;;;;;;;35.00;13.57;;;;;;;;;;10605132;27;20046;-72
2022/03/17 01:21:18;;;;;;;26.73;10.25;;;;;;;;;;10588226;27;20069;-72
2022/03/17 01:26:22;;;;;;;30.77;10.73;;;;;;;;;;10596349;27;20043;-71
2022/03/17 01:31:26;;;;;;;34.50;13.03;;;;;;;;;;10579780;27;20058;-73
2022/03/17 01:36:29;;;;;;;36.47;13.50;;;;;;;;;;10590991;27;20041;-71
2022/03/17 01:41:34;;;;;;;27.30;10.30;;;;;;;;;;10593481;27;20039;-71
2022/03/17 01:51:55;;;;;;;33.77;11.00;;;;;;;;;;10604161;27;20117;-72
2022/03/17 01:56:59;;;;;;;30.27;10.93;;;;;;;;;;10611892;27;20039;-72
2022/03/17 02:02:04;;;;;;;26.67;8.73;;;;;;;;;;10627722;27;20769;-72
2022/03/17 02:07:08;;;;;;;22.20;7.40;;;;;;;;;;10586497;27;20065;-72
2022/03/17 02:17:33;;;;;;;35.93;13.93;;;;;;;;;;10623862;27;20459;-72
2022/03/17 02:22:38;;;;;;;32.47;11.68;;;;;;;;;;10596733;27;20045;-72
2022/03/17 02:27:45;;;;;;;19.90;9.03;;;;;;;;;;10615252;27;20031;-74
2022/03/17 02:32:51;;;;;;;27.10;9.68;;;;;;;;;;10617565;27;20042;-73
2022/03/17 02:37:54;;;;;;;25.37;9.50;;;;;;;;;;10600392;27;20062;-73
2022/03/17 02:42:58;;;;;;;19.27;7.67;;;;;;;;;;10598166;27;20035;-73
2022/03/17 02:48:02;;;;;;;24.73;9.87;;;;;;;;;;10588221;27;20041;-73
2022/03/17 02:53:06;;;;;;;33.25;12.23;;;;;;;;;;10603454;27;20043;-73
2022/03/17 02:58:12;;;;;;;23.57;8.90;;;;;;;;;;10595298;27;20039;-74
2022/03/17 03:03:17;;;;;;;20.90;8.10;;;;;;;;;;10588184;27;20049;-71
2022/03/17 03:08:21;;;;;;;35.90;13.13;;;;;;;;;;10582081;27;20054;-71
2022/03/17 03:13:26;;;;;;;20.63;8.17;;;;;;;;;;10596125;27;20054;-73
2022/03/17 03:18:29;;;;;;;18.57;7.83;;;;;;;;;;10594653;27;20058;-73
2022/03/17 03:23:33;;;;;;;16.83;8.00;;;;;;;;;;10613163;27;20035;-73
2022/03/17 03:28:39;;;;;;;26.47;10.07;;;;;;;;;;10604430;27;20396;-74
2022/03/17 03:33:42;;;;;;;29.53;12.57;;;;;;;;;;10610158;27;20027;-74
2022/03/17 03:38:46;;;;;;;14.30;6.50;;;;;;;;;;10584784;27;22009;-73
2022/03/17 03:43:51;;;;;;;32.53;11.87;;;;;;;;;;10615880;27;20054;-73
2022/03/17 03:48:54;;;;;;;30.30;11.27;;;;;;;;;;10606579;27;20035;-73
2022/03/17 03:54:17;;;;;;;35.07;13.87;;;;;;;;;;10604747;27;20475;-73
2022/03/17 03:59:23;;;;;;;31.83;11.30;;;;;;;;;;10614856;27;20035;-73
2022/03/17 04:04:27;;;;;;;22.70;8.57;;;;;;;;;;10618683;27;20043;-73
2022/03/17 04:09:32;;;;;;;35.67;14.32;;;;;;;;;;10620008;27;20060;-73
2022/03/17 04:14:37;;;;;;;27.07;10.80;;;;;;;;;;10622487;27;20043;-72
2022/03/17 04:19:40;;;;;;;34.90;13.83;;;;;;;;;;10621409;27;20043;-72
2022/03/17 04:24:44;;;;;;;43.40;16.63;;;;;;;;;;10618702;27;20912;-70
2022/03/17 04:29:48;;;;;;;11.68;5.38;;;;;;;;;;10582422;27;20096;-72
2022/03/17 04:34:51;;;;;;;41.70;12.00;;;;;;;;;;10594357;27;20035;-73
2022/03/17 04:39:55;;;;;;;30.65;13.05;;;;;;;;;;10593134;27;20061;-72
2022/03/17 04:45:00;;;;;;;35.47;13.40;;;;;;;;;;10590742;27;20047;-73
2022/03/17 04:50:03;;;;;;;43.83;15.57;;;;;;;;;;10586881;27;20527;-72
2022/03/17 04:55:09;;;;;;;33.37;13.13;;;;;;;;;;10591127;27;20052;-72
2022/03/17 05:00:14;;;;;;;37.03;12.23;;;;;;;;;;10601217;27;20363;-73
2022/03/17 05:05:17;;;;;;;28.93;11.17;;;;;;;;;;10564920;27;20051;-72
2022/03/17 05:10:20;;;;;;;26.77;11.47;;;;;;;;;;10585761;27;20100;-73
2022/03/17 05:15:25;;;;;;;44.40;16.40;;;;;;;;;;10590391;27;20058;-72
2022/03/17 05:20:29;;;;;;;39.17;14.63;;;;;;;;;;10562169;27;20035;-73
2022/03/17 05:25:32;;;;;;;44.60;15.75;;;;;;;;;;10582165;27;20032;-72
2022/03/17 05:30:38;;;;;;;45.30;15.27;;;;;;;;;;10566646;27;20508;-74
2022/03/17 05:35:42;;;;;;;37.83;14.27;;;;;;;;;;10567016;27;20091;-73
2022/03/17 05:40:45;;;;;;;45.42;15.75;;;;;;;;;;10589584;27;20042;-72
2022/03/17 05:45:50;;;;;;;36.80;13.52;;;;;;;;;;10605330;27;20091;-74
2022/03/17 05:50:53;;;;;;;44.30;16.77;;;;;;;;;;10593345;27;20130;-72
2022/03/17 05:55:56;;;;;;;41.30;14.63;;;;;;;;;;10575531;27;20552;-72
2022/03/17 06:01:01;;;;;;;41.87;16.03;;;;;;;;;;10581894;27;20487;-73
2022/03/17 06:06:04;;;;;;;47.33;16.77;;;;;;;;;;10597080;27;20059;-71
2022/03/17 06:11:08;;;;;;;47.00;16.23;;;;;;;;;;10610395;27;20039;-71
2022/03/17 06:16:12;;;;;;;44.28;17.20;;;;;;;;;;10592418;27;20292;-74
2022/03/17 06:21:15;;;;;;;41.80;14.90;;;;;;;;;;10591728;27;20127;-73
2022/03/17 06:26:19;;;;;;;45.13;14.65;;;;;;;;;;10595107;27;20050;-73
2022/03/17 06:31:23;;;;;;;44.77;17.50;;;;;;;;;;10577498;27;20040;-73
2022/03/17 06:36:27;;;;;;;45.93;15.87;;;;;;;;;;10579207;27;20054;-74
2022/03/17 06:41:31;;;;;;;43.72;16.27;;;;;;;;;;10586452;27;20451;-73
2022/03/17 06:46:35;;;;;;;37.25;14.45;;;;;;;;;;10608362;27;20039;-73
2022/03/17 06:51:39;;;;;;;28.17;10.73;;;;;;;;;;10606162;27;20027;-71
2022/03/17 06:56:42;;;;;;;35.10;12.43;;;;;;;;;;10608809;27;20035;-72
2022/03/17 07:01:46;;;;;;;40.50;16.55;;;;;;;;;;10598262;27;20041;-70
2022/03/17 07:06:51;;;;;;;36.85;14.02;;;;;;;;;;10591008;27;20039;-73
2022/03/17 07:11:54;;;;;;;41.58;14.77;;;;;;;;;;10605723;27;20028;-72
2022/03/17 07:16:58;;;;;;;40.88;15.68;;;;;;;;;;10581705;27;20136;-73
2022/03/17 07:22:01;;;;;;;34.45;12.35;;;;;;;;;;10596766;27;20034;-73
2022/03/17 07:27:05;;;;;;;29.07;9.00;;;;;;;;;;10606114;27;20058;-72
2022/03/17 07:32:10;;;;;;;36.50;13.93;;;;;;;;;;10598109;27;20123;-74
2022/03/17 07:37:13;;;;;;;39.72;14.73;;;;;;;;;;10597859;27;20124;-73
2022/03/17 07:42:16;;;;;;;34.78;12.73;;;;;;;;;;10591152;27;20395;-72
2022/03/17 07:47:21;;;;;;;38.80;14.77;;;;;;;;;;10594274;27;20043;-73
2022/03/17 07:52:25;;;;;;;36.63;13.95;;;;;;;;;;10601424;27;20042;-72
2022/03/17 07:57:28;;;;;;;35.30;15.07;;;;;;;;;;10617573;27;20046;-73
2022/03/17 08:02:32;;;;;;;33.80;13.80;;;;;;;;;;10590261;27;20087;-72
2022/03/17 08:07:35;;;;;;;35.65;14.23;;;;;;;;;;10606684;27;20034;-72
2022/03/17 08:12:39;;;;;;;36.88;14.70;;;;;;;;;;10593685;27;20038;-73
2022/03/17 08:17:44;;;;;;;38.22;14.35;;;;;;;;;;10590228;27;20046;-73
2022/03/17 08:22:49;;;;;;;31.40;14.00;;;;;;;;;;10586274;27;20122;-74
2022/03/17 08:27:54;;;;;;;34.40;14.32;;;;;;;;;;10603261;27;20602;-73
2022/03/17 08:32:59;;;;;;;20.67;8.73;;;;;;;;;;10592161;27;20100;-74
2022/03/17 08:38:02;;;;;;;39.30;20.27;;;;;;;;;;10588813;27;20487;-74
2022/03/17 08:43:06;;;;;;;53.13;16.00;;;;;;;;;;10598409;27;20042;-73
2022/03/17 08:53:31;;;;;;;11.05;5.65;;;;;;;;;;10588501;27;20133;-72
2022/03/17 08:58:38;;;;;;;43.40;14.32;;;;;;;;;;10591154;27;20035;-73
2022/03/17 09:03:43;;;;;;;127.20;25.65;;;;;;;;;;10605574;27;20062;-72
2022/03/17 09:08:48;;;;;;;28.42;11.10;;;;;;;;;;10591089;27;20027;-73
2022/03/17 09:13:52;;;;;;;32.95;14.68;;;;;;;;;;10613862;27;20088;-74
2022/03/17 09:18:56;;;;;;;34.97;14.98;;;;;;;;;;10609656;27;20034;-74
2022/03/17 09:24:00;;;;;;;34.28;14.27;;;;;;;;;;10589560;27;20770;-75
2022/03/17 09:29:04;;;;;;;53.55;17.05;;;;;;;;;;10596112;27;20095;-73
2022/03/17 09:34:09;;;;;;;30.10;13.63;;;;;;;;;;10585092;27;20035;-72
2022/03/17 09:44:32;;;;;;;30.67;13.23;;;;;;;;;;10592096;27;20050;-73
2022/03/17 09:49:37;;;;;;;32.47;14.18;;;;;;;;;;10602024;27;20135;-73
2022/03/17 09:54:41;;;;;;;32.85;14.23;;;;;;;;;;10582182;27;20053;-73
2022/03/17 09:59:45;;;;;;;29.20;12.73;;;;;;;;;;10602876;27;20046;-73
2022/03/17 10:04:49;;;;;;;37.78;19.67;;;;;;;;;;10585551;27;20606;-74
2022/03/17 10:09:52;;;;;;;33.15;15.05;;;;;;;;;;10599091;27;20487;-74
2022/03/17 10:14:55;;;;;;;29.33;14.25;;;;;;;;;;10613024;27;20043;-73
2022/03/17 10:20:11;;;;;;;45.00;14.37;;;;;;;;;;10633673;27;20050;-72
2022/03/17 10:25:15;;;;;;;34.55;12.50;;;;;;;;;;10605415;27;20039;-72
2022/03/17 10:30:22;;;;;;;44.40;15.88;;;;;;;;;;10580412;27;20046;-72
2022/03/17 10:35:27;;;;;;;58.50;16.00;;;;;;;;;;10595929;27;20035;-74
2022/03/17 10:40:31;;;;;;;28.05;14.02;;;;;;;;;;10585203;27;20037;-73
2022/03/17 10:45:34;;;;;;;32.50;13.93;;;;;;;;;;10605470;27;20043;-71
2022/03/17 10:50:42;;;;;;;29.27;14.27;;;;;;;;;;10606749;27;20031;-72
2022/03/17 10:55:45;;;;;;;31.90;13.70;;;;;;;;;;10588707;27;20035;-73
2022/03/17 11:00:49;;;;;;;29.40;12.90;;;;;;;;;;10597765;27;20095;-72
2022/03/17 11:05:54;;;;;;;34.72;14.68;;;;;;;;;;10607234;27;20115;-72
2022/03/17 11:10:57;;;;;;;33.33;14.00;;;;;;;;;;10615576;27;20023;-73
2022/03/17 11:16:02;;;;;;;37.00;13.38;;;;;;;;;;10593461;27;20104;-73
2022/03/17 11:21:13;;;;;;;33.15;14.00;;;;;;;;;;10579252;27;20388;-73
2022/03/17 11:26:21;;;;;;;32.00;14.32;;;;;;;;;;10611528;27;20629;-73
2022/03/17 11:31:27;;;;;;;31.05;14.07;;;;;;;;;;10602459;27;20478;-73
2022/03/17 11:36:33;;;;;;;35.70;14.88;;;;;;;;;;10590580;27;20042;-74
2022/03/17 11:41:41;;;;;;;31.92;13.13;;;;;;;;;;10584546;27;20047;-73
2022/03/17 11:46:45;;;;;;;31.23;12.98;;;;;;;;;;10606682;27;20046;-72
2022/03/17 11:51:57;;;;;;;28.73;12.65;;;;;;;;;;10594085;27;20039;-73
2022/03/17 11:57:00;;;;;;;34.80;14.90;;;;;;;;;;10586001;27;20142;-73
2022/03/17 12:02:11;;;;;;;33.72;14.27;;;;;;;;;;10606084;27;20067;-73
2022/03/17 12:07:18;;;;;;;30.10;13.50;;;;;;;;;;10608149;27;20039;-73
2022/03/17 12:12:23;;;;;;;33.10;14.07;;;;;;;;;;10593675;27;20502;-72
2022/03/17 12:17:26;;;;;;;40.97;17.35;;;;;;;;;;10609215;27;20047;-73
2022/03/17 12:22:39;;;;;;;36.13;14.02;;;;;;;;;;10588380;27;20134;-72
2022/03/17 12:27:43;;;;;;;30.40;14.35;;;;;;;;;;10611813;27;20047;-71
2022/03/17 12:32:46;;;;;;;;;;;;;;;;;;10593982;27;20031;-72
2022/03/17 12:37:57;;;;;;;31.13;13.57;;;;;;;;;;10603403;27;20330;-73
2022/03/17 12:43:11;;;;;;;34.05;14.23;;;;;;;;;;10600535;27;20027;-74
2022/03/17 12:48:14;;;;;;;37.72;14.23;;;;;;;;;;10603838;27;20040;-74
2022/03/17 12:53:18;;;;;;;28.37;12.63;;;;;;;;;;10593968;27;20065;-72
2022/03/17 12:58:21;;;;;;;34.25;14.05;;;;;;;;;;10599505;27;20685;-73
2022/03/17 13:03:25;;;;;;;28.60;13.17;;;;;;;;;;10604761;27;20031;-73
2022/03/17 13:08:30;;;;;;;32.70;12.07;;;;;;;;;;10600006;27;20508;-73
2022/03/17 13:18:55;;;;;;;32.40;12.02;;;;;;;;;;10576117;27;20059;-74
2022/03/17 13:24:12;;;;;;;27.45;11.60;;;;;;;;;;10587259;27;20046;-73
2022/03/17 13:29:15;;;;;;;26.73;11.32;;;;;;;;;;10577768;27;20039;-73
2022/03/17 13:34:28;;;;;;;25.17;11.18;;;;;;;;;;10584476;27;20041;-73
2022/03/17 13:39:35;;;;;;;23.20;11.05;;;;;;;;;;10590396;27;20100;-75
2022/03/17 13:44:45;;;;;;;30.77;11.77;;;;;;;;;;10595679;27;20126;-72
2022/03/17 13:50:07;;;;;;;29.42;12.15;;;;;;;;;;10576310;27;20064;-73
2022/03/17 13:55:13;;;;;;;29.80;11.93;;;;;;;;;;10596570;27;20062;-74
2022/03/17 14:00:18;;;;;;;32.50;13.45;;;;;;;;;;10599564;27;20043;-72
2022/03/17 14:05:21;;;;;;;35.28;12.80;;;;;;;;;;10591668;27;20096;-73
2022/03/17 14:10:26;;;;;;;33.40;14.73;;;;;;;;;;10613230;27;20067;-72
2022/03/17 14:15:28;;;;;;;30.63;14.15;;;;;;;;;;10589959;27;20067;-74
2022/03/17 14:20:32;;;;;;;39.40;13.83;;;;;;;;;;10602812;27;20035;-74
2022/03/17 14:25:36;;;;;;;41.40;16.43;;;;;;;;;;10607948;27;20564;-73
2022/03/17 14:30:39;;;;;;;38.10;15.45;;;;;;;;;;10609172;27;20095;-72
2022/03/17 14:35:42;;;;;;;33.93;15.53;;;;;;;;;;10606273;27;20453;-74
2022/03/17 14:40:46;;;;;;;35.50;15.37;;;;;;;;;;10583844;27;20096;-72
2022/03/17 14:45:49;;;;;;;41.13;16.92;;;;;;;;;;10584406;27;20036;-73
2022/03/17 14:50:52;;;;;;;37.63;16.07;;;;;;;;;;10610386;27;20142;-73
2022/03/17 14:55:57;;;;;;;38.63;15.70;;;;;;;;;;10644694;27;20035;-74
2022/03/17 15:01:00;;;;;;;39.88;17.42;;;;;;;;;;10622101;27;20035;-73
2022/03/17 15:06:04;;;;;;;37.75;16.25;;;;;;;;;;10600926;27;20503;-73
2022/03/17 15:11:09;;;;;;;40.38;16.45;;;;;;;;;;10607585;27;20155;-72
2022/03/17 15:16:12;;;;;;;39.72;17.20;;;;;;;;;;10619388;27;20043;-72
2022/03/17 15:21:15;;;;;;;45.55;15.88;;;;;;;;;;10597141;27;20042;-72
2022/03/17 15:26:19;;;;;;;40.65;15.73;;;;;;;;;;10591437;27;20043;-73
2022/03/17 15:31:22;;;;;;;41.88;16.17;;;;;;;;;;10591433;27;20062;-73
2022/03/17 15:36:30;;;;;;;56.40;21.77;;;;;;;;;;10591521;27;20051;-74
2022/03/17 15:41:34;;;;;;;50.05;19.30;;;;;;;;;;10614377;27;20049;-72
2022/03/17 15:46:37;;;;;;;47.08;18.00;;;;;;;;;;10598449;27;20047;-73
2022/03/17 15:51:41;;;;;;;;;;;;;;;;;;10620802;27;20035;-72
2022/03/17 15:56:46;;;;;;;36.28;14.38;;;;;;;;;;10621191;27;20417;-74
2022/03/17 16:01:49;;;;;;;44.95;17.80;;;;;;;;;;10598866;27;20031;-73
2022/03/17 16:06:53;;;;;;;;;;;;;;;;;;10607447;27;20423;-73
2022/03/17 16:17:17;;;;;;;39.85;15.45;;;;;;;;;;10586870;27;20415;-72
2022/03/17 16:22:21;;;;;;;46.17;15.90;;;;;;;;;;10611501;27;20043;-73
2022/03/17 16:27:26;;;;;;;41.92;15.95;;;;;;;;;;10612020;27;20043;-73
2022/03/17 16:32:29;;;;;;;37.97;15.52;;;;;;;;;;10587666;27;20084;-74
2022/03/17 16:37:32;;;;;;;45.08;16.38;;;;;;;;;;10597845;27;20033;-73
2022/03/17 16:42:36;;;;;;;38.80;15.07;;;;;;;;;;10620873;27;20390;-73
2022/03/17 16:47:39;;;;;;;38.58;15.00;;;;;;;;;;10586583;27;20039;-73
2022/03/17 16:52:43;;;;;;;33.83;15.00;;;;;;;;;;10579426;27;20035;-72
2022/03/17 16:57:47;;;;;;;47.08;17.00;;;;;;;;;;10573582;27;20047;-73
2022/03/17 17:02:50;;;;;;;51.60;18.38;;;;;;;;;;10579065;27;20598;-73
2022/03/17 17:07:56;;;;;;;40.30;14.85;;;;;;;;;;10582471;27;20407;-74
2022/03/17 17:13:06;;;;;;;46.67;16.58;;;;;;;;;;10606600;27;20030;-72
2022/03/17 17:18:08;;;;;;;;;;;;;;;;;;10591478;27;20055;-72
2022/03/17 17:33:56;;;;;;;;;;;;;;;;;;10580674;27;19919;-73
2022/03/17 17:38:59;;;;;;;;;;;;;;;;;;10581100;27;20022;-71
2022/03/17 17:44:01;;;;;;;;;;;;;;;;;;10592048;27;19923;-74
2022/03/17 17:49:07;;;;;;;46.80;16.83;;;;;;;;;;10574591;27;19919;-73
2022/03/17 17:54:10;;;;;;;43.67;16.67;;;;;;;;;;10581583;27;20045;-72
2022/03/17 17:59:13;;;;;;;42.17;16.47;;;;;;;;;;10604704;27;20027;-73
2022/03/17 18:04:22;;;;;;;42.47;17.80;;;;;;;;;;10597979;27;20050;-72
2022/03/17 18:09:25;;;;;;;44.40;17.63;;;;;;;;;;10591204;27;20383;-73
2022/03/17 18:14:29;;;;;;;47.65;18.15;;;;;;;;;;10576224;27;20713;-74
2022/03/17 18:19:33;;;;;;;41.53;16.48;;;;;;;;;;10597053;27;20073;-72
2022/03/17 18:24:36;;;;;;;43.90;17.10;;;;;;;;;;10574522;27;20103;-73
2022/03/17 18:29:39;;;;;;;46.47;18.03;;;;;;;;;;10598174;22;20035;-68
2022/03/17 18:34:44;;;;;;;53.28;18.40;;;;;;;;;;10601354;27;20319;-68
2022/03/17 18:39:47;;;;;;;45.72;17.73;;;;;;;;;;10589846;27;20035;-69
2022/03/17 18:44:49;;;;;;;43.53;16.48;;;;;;;;;;10552433;27;20086;-68
2022/03/17 18:49:54;;;;;;;47.75;17.42;;;;;;;;;;10558995;27;20039;-69
2022/03/17 18:55:02;;;;;;;54.50;19.13;;;;;;;;;;10556301;27;20131;-68
2022/03/17 19:00:12;;;;;;;55.45;18.55;;;;;;;;;;10556507;28;20067;-69
2022/03/17 19:05:16;;;;;;;46.83;19.50;;;;;;;;;;10546167;27;20042;-69
2022/03/17 19:10:19;;;;;;;56.03;20.88;;;;;;;;;;10555210;27;20078;-69
2022/03/17 19:15:22;;;;;;;48.20;18.67;;;;;;;;;;10541030;28;20051;-68
2022/03/17 19:20:45;;;;;;;44.92;18.77;;;;;;;;;;10544321;27;20043;-67
2022/03/17 19:25:48;;;;;;;50.47;18.02;;;;;;;;;;10530882;28;20044;-69
2022/03/17 19:30:51;;;;;;;48.25;17.58;;;;;;;;;;10534280;27;20411;-68
2022/03/17 19:35:55;;;;;;;50.63;20.35;;;;;;;;;;10541262;27;20223;-70
2022/03/17 19:41:11;;;;;;;55.78;20.52;;;;;;;;;;10533657;28;20360;-71
2022/03/17 19:46:15;;;;;;;47.25;18.33;;;;;;;;;;10550196;28;20530;-69
2022/03/17 19:51:20;;;;;;;46.67;19.60;;;;;;;;;;10532222;28;20104;-69
2022/03/17 19:56:26;;;;;;;52.90;20.35;;;;;;;;;;10549897;27;20392;-68
2022/03/17 20:01:30;;;;;;;47.00;16.40;;;;;;;;;;10534476;28;20120;-69
2022/03/17 20:06:55;;;;;;;51.80;20.35;;;;;;;;;;10563370;27;20436;-69
2022/03/17 20:17:22;;;;;;;63.83;23.90;;;;;;;;;;10550743;28;20524;-67
2022/03/17 20:22:27;;;;;;;53.22;20.55;;;;;;;;;;10529301;28;20036;-68
2022/03/17 20:27:30;;;;;;;50.10;17.85;;;;;;;;;;10536414;27;21044;-69
2022/03/17 20:32:33;;;;;;;55.10;20.23;;;;;;;;;;10535154;28;20036;-68
2022/03/17 20:37:38;;;;;;;49.10;17.10;;;;;;;;;;10538202;27;20166;-69
2022/03/17 20:42:42;;;;;;;57.38;21.00;;;;;;;;;;10554520;27;20134;-68
2022/03/17 20:47:44;;;;;;;;;;;;;;;;;;10550592;28;20106;-69
2022/03/17 20:52:48;;;;;;;56.03;19.17;;;;;;;;;;10549978;28;19927;-69
2022/03/17 20:57:51;;;;;;;60.92;22.30;;;;;;;;;;10533076;28;20032;-68
2022/03/17 21:02:54;;;;;;;;;;;;;;;;;;10546924;28;20024;-69
2022/03/17 21:07:57;;;;;;;;;;;;;;;;;;10534373;28;19923;-68
2022/03/17 21:13:02;;;;;;;55.90;21.38;;;;;;;;;;10533770;28;20050;-68
2022/03/17 21:18:05;;;;;;;56.22;19.92;;;;;;;;;;10535012;27;20517;-69
2022/03/17 21:23:08;;;;;;;54.78;21.02;;;;;;;;;;10560268;28;20085;-68
2022/03/17 21:28:12;;;;;;;58.75;21.27;;;;;;;;;;10530198;27;20043;-69
2022/03/17 21:33:15;;;;;;;52.30;20.48;;;;;;;;;;10540888;28;20044;-68
2022/03/17 21:38:18;;;;;;;57.17;21.58;;;;;;;;;;10540112;28;20067;-69
2022/03/17 21:43:23;;;;;;;55.08;21.98;;;;;;;;;;10552809;28;20066;-69
2022/03/17 21:48:26;;;;;;;57.78;21.85;;;;;;;;;;10531393;28;20088;-69
2022/03/17 21:53:28;;;;;;;53.47;21.10;;;;;;;;;;10535216;28;20032;-67
2022/03/17 21:58:33;;;;;;;58.00;20.57;;;;;;;;;;10548994;28;20028;-68
2022/03/17 22:03:37;;;;;;;56.85;21.02;;;;;;;;;;10527645;28;20115;-69
2022/03/17 22:08:40;;;;;;;58.38;21.05;;;;;;;;;;10531581;27;20035;-69
2022/03/17 22:13:45;;;;;;;;;;;;;;;;;;10553998;27;20428;-68
2022/03/17 22:18:50;;;;;;;53.60;18.65;;;;;;;;;;10537295;28;19920;-69
2022/03/17 22:23:53;;;;;;;52.22;18.70;;;;;;;;;;10549734;28;20193;-68
2022/03/17 22:28:56;;;;;;;59.22;22.10;;;;;;;;;;10539866;27;20109;-67
2022/03/17 22:34:01;;;;;;;52.60;20.38;;;;;;;;;;10530404;28;20043;-67
2022/03/17 22:39:04;;;;;;;59.00;21.48;;;;;;;;;;10553898;27;20040;-68
2022/03/17 22:44:09;;;;;;;55.70;21.23;;;;;;;;;;10533429;28;20043;-67
2022/03/17 22:49:15;;;;;;;54.03;18.73;;;;;;;;;;10549594;28;20438;-68
2022/03/17 22:54:18;;;;;;;58.97;20.63;;;;;;;;;;10527816;28;20212;-67
2022/03/17 22:59:20;;;;;;;;;;;;;;;;;;10556470;27;20457;-68
2022/03/17 23:04:23;;;;;;;;;;;;;;;;;;10560794;28;19919;-68
2022/03/17 23:09:26;;;;;;;;;;;;;;;;;;10538211;27;20341;-68
2022/03/17 23:14:28;;;;;;;;;;;;;;;;;;10536788;28;20362;-67
2022/03/17 23:19:31;;;;;;;;;;;;;;;;;;10549462;27;19970;-67
2022/03/17 23:24:33;;;;;;;;;;;;;;;;;;10535399;27;20570;-67
2022/03/17 23:29:37;;;;;;;;;;;;;;;;;;10550990;27;20016;-66
2022/03/17 23:34:40;;;;;;;;;;;;;;;;;;10543607;27;20019;-66
2022/03/17 23:39:44;;;;;;;;;;;;;;;;;;10555097;27;20022;-65
2022/03/17 23:44:47;;;;;;;;;;;;;;;;;;10548200;28;19955;-66
2022/03/17 23:49:51;;;;;;;;;;;;;;;;;;10550795;27;19932;-65
2022/03/17 23:54:54;;;;;;;;;;;;;;;;;;10539723;28;20419;-67
2022/03/17 23:59:56;;;;;;;;;;;;;;;;;;10536561;28;19959;-67
